Time;durP1;ratioP1;P1;durP2;ratioP2;P2;SDS_P1;SDS_P2;PMS_P1;PMS_P2;Temp;Humidity;BMP_temperature;BMP_pressure;BME280_temperature;BME280_humidity;BME280_pressure;Samples;Min_cycle;Max_cycle;Signal;HPM_P1;HPM_P2
2023/09/15 00:01:21;;;;;;;8.53;7.87;;;10.60;84.50;;;;;;5113442;28;20613;-88
2023/09/15 00:03:47;;;;;;;7.70;7.20;;;10.60;84.40;;;;;;5114703;28;20177;-88
2023/09/15 00:06:13;;;;;;;8.33;7.67;;;10.60;84.20;;;;;;5113310;28;20202;-88
2023/09/15 00:08:38;;;;;;;7.93;7.27;;;10.50;84.20;;;;;;5113125;28;20216;-88
2023/09/15 00:11:04;;;;;;;8.87;7.53;;;10.50;84.30;;;;;;5114340;28;20173;-90
2023/09/15 00:13:31;;;;;;;8.70;8.00;;;10.50;84.20;;;;;;5114317;28;20185;-89
2023/09/15 00:15:58;;;;;;;8.60;7.80;;;10.50;84.20;;;;;;5113114;28;20185;-88
2023/09/15 00:18:25;;;;;;;8.93;7.13;;;10.40;84.50;;;;;;5114233;28;20193;-88
2023/09/15 00:20:50;;;;;;;8.33;7.63;;;10.40;84.50;;;;;;5113134;28;20170;-88
2023/09/15 00:23:17;;;;;;;9.33;8.67;;;10.40;84.50;;;;;;5114232;28;20211;-88
2023/09/15 00:25:45;;;;;;;8.63;7.93;;;10.40;84.60;;;;;;5114525;28;20197;-88
2023/09/15 00:28:13;;;;;;;7.70;7.07;;;10.30;84.70;;;;;;5114447;28;20165;-88
2023/09/15 00:30:39;;;;;;;8.30;7.60;;;10.30;84.70;;;;;;5112972;28;20182;-89
2023/09/15 00:33:04;;;;;;;7.80;7.30;;;10.30;84.80;;;;;;5113234;28;20226;-88
2023/09/15 00:35:30;;;;;;;8.47;7.87;;;10.30;84.90;;;;;;5112710;28;20178;-89
2023/09/15 00:37:56;;;;;;;8.50;7.70;;;10.30;84.90;;;;;;5114176;28;20728;-88
2023/09/15 00:40:22;;;;;;;7.50;6.90;;;10.30;84.90;;;;;;5114242;28;20166;-88
2023/09/15 00:42:49;;;;;;;7.80;7.20;;;10.30;84.90;;;;;;5114059;28;20166;-88
2023/09/15 00:45:18;;;;;;;7.43;6.93;;;10.20;84.90;;;;;;5114096;28;20232;-88
2023/09/15 00:47:46;;;;;;;8.87;8.07;;;10.20;84.90;;;;;;5113931;28;20173;-88
2023/09/15 00:50:14;;;;;;;8.93;8.23;;;10.30;84.80;;;;;;5114185;28;20170;-87
2023/09/15 00:52:43;;;;;;;8.07;7.40;;;10.30;84.80;;;;;;5112913;28;20552;-87
2023/09/15 00:55:11;;;;;;;8.87;8.27;;;10.20;84.70;;;;;;5113987;28;20205;-88
2023/09/15 00:57:37;;;;;;;8.67;7.70;;;10.20;84.70;;;;;;5112993;28;20170;-88
2023/09/15 01:00:04;;;;;;;12.67;8.30;;;10.20;84.80;;;;;;5113942;28;20193;-88
2023/09/15 01:02:29;;;;;;;8.20;7.53;;;10.20;84.80;;;;;;5112892;28;20170;-88
2023/09/15 01:04:56;;;;;;;8.17;7.47;;;10.20;85.00;;;;;;5113778;28;20676;-88
2023/09/15 01:07:21;;;;;;;8.83;8.00;;;10.10;85.00;;;;;;5112398;28;20645;-88
2023/09/15 01:09:47;;;;;;;9.13;8.40;;;10.10;85.20;;;;;;5112586;28;20174;-88
2023/09/15 01:12:12;;;;;;;10.87;6.57;;;10.10;85.30;;;;;;5113805;28;20166;-88
2023/09/15 01:14:38;;;;;;;19.60;18.20;;;10.10;85.40;;;;;;5113652;28;20716;-88
2023/09/15 01:17:11;;;;;;;17.67;16.37;;;10.10;85.50;;;;;;5112673;28;20557;-88
2023/09/15 01:19:57;;;;;;;18.07;16.67;;;10.10;85.40;;;;;;5112484;28;20579;-88
2023/09/15 01:22:45;;;;;;;19.83;18.53;;;10.10;85.40;;;;;;5112525;28;20312;-87
2023/09/15 01:25:26;;;;;;;19.90;18.20;;;10.10;85.70;;;;;;5112088;28;20634;-88
2023/09/15 01:28:14;;;;;;;19.57;18.03;;;10.00;85.60;;;;;;5114124;28;20166;-88
2023/09/15 01:30:41;;;;;;;20.73;18.93;;;10.00;85.60;;;;;;5117996;28;20154;-87
2023/09/15 01:33:09;;;;;;;16.87;15.87;;;10.00;85.90;;;;;;5116020;28;20174;-89
2023/09/15 01:35:35;;;;;;;18.73;17.30;;;10.00;86.00;;;;;;5117502;28;20173;-88
2023/09/15 01:38:00;;;;;;;18.63;17.27;;;10.00;86.00;;;;;;5117097;28;20190;-88
2023/09/15 01:40:26;;;;;;;19.07;17.67;;;10.00;86.00;;;;;;5116009;28;20178;-88
2023/09/15 01:42:54;;;;;;;20.17;18.47;;;9.90;86.30;;;;;;5116227;28;20166;-87
2023/09/15 01:45:20;;;;;;;21.60;20.00;;;9.90;86.70;;;;;;5117194;28;20250;-88
2023/09/15 01:47:47;;;;;;;7.07;6.37;;;9.90;86.90;;;;;;5115768;28;20607;-87
2023/09/15 01:50:14;;;;;;;6.97;6.47;;;9.90;87.10;;;;;;5115874;28;20257;-87
2023/09/15 01:52:41;;;;;;;17.10;15.70;;;9.80;87.20;;;;;;5116905;27;20170;-88
2023/09/15 01:55:08;;;;;;;17.30;15.80;;;9.70;87.40;;;;;;5116430;28;20233;-88
2023/09/15 01:57:33;;;;;;;19.27;17.93;;;9.80;87.70;;;;;;5115514;28;20205;-88
2023/09/15 01:59:59;;;;;;;7.70;6.87;;;9.70;87.60;;;;;;5116915;28;20170;-88
2023/09/15 02:02:24;;;;;;;8.37;6.33;;;9.60;87.90;;;;;;5115591;28;20269;-88
2023/09/15 02:04:50;;;;;;;15.50;14.40;;;9.50;88.20;;;;;;5117024;28;20278;-87
2023/09/15 02:07:16;;;;;;;17.47;16.23;;;9.50;88.40;;;;;;5116869;28;20173;-88
2023/09/15 02:09:41;;;;;;;5.77;5.37;;;9.50;88.50;;;;;;5116760;28;20266;-88
2023/09/15 02:12:07;;;;;;;6.63;5.47;;;9.60;88.50;;;;;;5116548;28;20617;-88
2023/09/15 02:14:34;;;;;;;6.23;5.80;;;9.60;88.50;;;;;;5116621;28;20217;-88
2023/09/15 02:17:00;;;;;;;7.37;5.80;;;9.70;88.50;;;;;;5115353;28;20178;-87
2023/09/15 02:19:26;;;;;;;7.20;6.03;;;9.60;88.40;;;;;;5115243;28;20209;-87
2023/09/15 02:21:51;;;;;;;6.40;5.90;;;9.60;88.40;;;;;;5116551;28;20517;-87
2023/09/15 02:24:17;;;;;;;7.10;6.43;;;9.70;88.30;;;;;;5115113;28;20672;-88
2023/09/15 02:26:42;;;;;;;7.07;6.50;;;9.60;88.20;;;;;;5116451;28;20219;-87
2023/09/15 02:29:08;;;;;;;7.27;6.57;;;9.60;88.10;;;;;;5115106;28;20227;-88
2023/09/15 02:31:33;;;;;;;9.33;7.43;;;9.50;88.00;;;;;;5116565;28;20171;-88
2023/09/15 02:33:59;;;;;;;10.17;8.23;;;9.50;87.90;;;;;;5115909;28;20277;-88
2023/09/15 02:36:26;;;;;;;8.57;7.87;;;9.50;87.60;;;;;;5116201;28;20173;-89
2023/09/15 02:38:54;;;;;;;10.57;8.20;;;9.40;87.50;;;;;;5116239;28;20660;-88
2023/09/15 02:41:20;;;;;;;10.57;8.90;;;9.40;87.60;;;;;;5114603;28;20531;-88
2023/09/15 02:43:46;;;;;;;8.20;7.43;;;9.30;87.70;;;;;;5114939;28;20611;-88
2023/09/15 02:46:12;;;;;;;10.40;7.67;;;9.30;87.90;;;;;;5115095;28;20174;-88
2023/09/15 02:48:37;;;;;;;8.80;8.00;;;9.30;88.10;;;;;;5114957;28;20178;-88
2023/09/15 02:51:04;;;;;;;8.03;7.33;;;9.30;88.40;;;;;;5115838;28;20170;-88
2023/09/15 02:53:30;;;;;;;7.67;6.97;;;9.30;88.50;;;;;;5115871;28;20197;-88
2023/09/15 02:56:00;;;;;;;8.13;7.33;;;9.30;88.50;;;;;;5114900;28;20587;-88
2023/09/15 02:58:26;;;;;;;15.80;7.17;;;9.30;88.40;;;;;;5116239;28;20579;-88
2023/09/15 03:00:53;;;;;;;8.30;7.40;;;9.30;88.50;;;;;;5114615;28;20197;-88
2023/09/15 03:03:19;;;;;;;7.00;6.40;;;9.30;88.60;;;;;;5115226;28;20688;-88
2023/09/15 03:05:45;;;;;;;7.40;6.67;;;9.30;88.70;;;;;;5114068;28;20653;-89
2023/09/15 03:08:11;;;;;;;8.63;7.40;;;9.30;88.80;;;;;;5115976;28;20250;-88
2023/09/15 03:10:37;;;;;;;7.73;6.50;;;9.30;88.80;;;;;;5114848;28;20566;-88
2023/09/15 03:13:04;;;;;;;6.30;5.70;;;9.30;88.80;;;;;;5115571;28;20166;-88
2023/09/15 03:15:30;;;;;;;10.63;6.13;;;9.30;88.70;;;;;;5115311;28;20169;-88
2023/09/15 03:17:55;;;;;;;7.70;6.40;;;9.30;88.80;;;;;;5115047;28;20220;-88
2023/09/15 03:20:21;;;;;;;6.90;6.30;;;9.30;88.80;;;;;;5115246;28;20177;-88
2023/09/15 03:22:47;;;;;;;8.87;6.37;;;9.20;88.60;;;;;;5115370;28;20186;-88
2023/09/15 03:25:14;;;;;;;7.10;6.40;;;9.30;88.60;;;;;;5115682;28;20201;-87
2023/09/15 03:27:40;;;;;;;7.67;6.73;;;9.30;88.60;;;;;;5114139;28;20222;-88
2023/09/15 03:30:06;;;;;;;8.90;6.07;;;9.30;88.60;;;;;;5115661;28;20170;-88
2023/09/15 03:32:33;;;;;;;6.63;5.90;;;9.30;88.60;;;;;;5113837;28;20170;-88
2023/09/15 03:34:58;;;;;;;6.70;6.00;;;9.30;88.50;;;;;;5113463;28;20229;-88
2023/09/15 03:37:24;;;;;;;6.70;6.07;;;9.30;88.50;;;;;;5115210;28;20641;-88
2023/09/15 03:39:50;;;;;;;6.67;6.13;;;9.30;88.50;;;;;;5114812;27;20198;-88
2023/09/15 03:42:15;;;;;;;9.87;6.67;;;9.20;88.30;;;;;;5113706;28;20242;-88
2023/09/15 03:44:41;;;;;;;6.60;6.10;;;9.20;88.20;;;;;;5114682;28;20186;-88
2023/09/15 03:47:06;;;;;;;8.07;6.03;;;9.20;88.20;;;;;;5113366;28;20174;-88
2023/09/15 03:49:33;;;;;;;6.70;6.10;;;9.20;88.20;;;;;;5114817;28;20258;-88
2023/09/15 03:51:59;;;;;;;16.90;15.27;;;9.10;88.10;;;;;;5112328;28;20664;-87
2023/09/15 03:54:26;;;;;;;19.57;17.73;;;9.20;88.00;;;;;;5113311;28;20200;-88
2023/09/15 03:56:51;;;;;;;18.37;17.03;;;9.20;88.00;;;;;;5113369;28;20193;-88
2023/09/15 03:59:17;;;;;;;17.77;16.30;;;9.10;88.00;;;;;;5114600;28;20563;-88
2023/09/15 04:01:42;;;;;;;16.83;15.50;;;9.10;88.30;;;;;;5114679;28;20170;-88
2023/09/15 04:04:08;;;;;;;15.10;13.80;;;9.00;88.50;;;;;;5114733;28;20197;-87
2023/09/15 04:06:35;;;;;;;16.60;14.87;;;9.00;88.80;;;;;;5113412;28;20174;-88
2023/09/15 04:09:05;;;;;;;15.77;14.37;;;9.00;89.00;;;;;;5114658;28;20634;-88
2023/09/15 04:11:32;;;;;;;15.00;13.70;;;9.00;89.20;;;;;;5114871;28;20173;-88
2023/09/15 04:13:57;;;;;;;16.43;13.83;;;9.00;89.30;;;;;;5113140;28;20209;-87
2023/09/15 04:16:23;;;;;;;17.33;15.67;;;9.00;89.50;;;;;;5114505;28;20177;-88
2023/09/15 04:18:48;;;;;;;15.43;14.00;;;9.00;89.60;;;;;;5113043;28;20255;-88
2023/09/15 04:21:14;;;;;;;16.60;14.80;;;9.00;89.80;;;;;;5114297;28;20251;-88
2023/09/15 04:23:39;;;;;;;16.50;15.20;;;9.00;89.90;;;;;;5113284;28;20747;-87
2023/09/15 04:26:05;;;;;;;8.37;7.53;;;9.00;90.10;;;;;;5113087;28;20325;-88
2023/09/15 04:28:30;;;;;;;10.13;8.30;;;8.90;90.10;;;;;;5114722;28;20180;-87
2023/09/15 04:30:56;;;;;;;15.03;13.93;;;8.90;90.20;;;;;;5114064;28;20262;-87
2023/09/15 04:33:22;;;;;;;15.50;14.30;;;8.80;90.30;;;;;;5112848;28;20582;-88
2023/09/15 04:35:48;;;;;;;16.17;13.57;;;8.80;90.40;;;;;;5112844;28;20233;-88
2023/09/15 04:38:14;;;;;;;8.83;7.00;;;8.80;90.50;;;;;;5114101;28;20284;-88
2023/09/15 04:40:40;;;;;;;7.63;6.90;;;8.80;90.60;;;;;;5113970;28;20166;-88
2023/09/15 04:43:05;;;;;;;13.87;12.83;;;8.80;90.70;;;;;;5112896;28;20547;-88
2023/09/15 04:45:31;;;;;;;14.67;13.47;;;8.90;90.80;;;;;;5114250;28;20164;-87
2023/09/15 04:47:56;;;;;;;8.63;7.87;;;8.90;90.90;;;;;;5112757;28;20193;-88
2023/09/15 04:50:22;;;;;;;8.90;7.40;;;8.90;90.90;;;;;;5112815;28;20253;-87
2023/09/15 04:52:48;;;;;;;15.20;7.63;;;8.80;90.90;;;;;;5114015;28;20172;-88
2023/09/15 04:55:13;;;;;;;11.50;7.70;;;8.80;91.00;;;;;;5112403;28;20213;-87
2023/09/15 04:57:39;;;;;;;11.00;7.40;;;8.80;91.00;;;;;;5113900;28;20174;-87
2023/09/15 05:00:11;;;;;;;8.63;7.73;;;8.80;91.10;;;;;;5114099;28;20170;-87
2023/09/15 05:02:37;;;;;;;8.40;7.60;;;8.80;91.10;;;;;;5113617;28;20223;-87
2023/09/15 05:05:02;;;;;;;9.43;7.27;;;8.80;91.20;;;;;;5116532;28;20662;-87
2023/09/15 05:07:28;;;;;;;8.40;7.57;;;8.80;91.30;;;;;;5117851;28;20545;-87
2023/09/15 05:09:53;;;;;;;10.80;8.27;;;8.80;91.30;;;;;;5116302;28;20166;-88
2023/09/15 05:12:19;;;;;;;8.83;7.70;;;8.80;91.30;;;;;;5116648;28;20176;-88
2023/09/15 05:14:44;;;;;;;12.17;7.70;;;8.70;91.30;;;;;;5116273;28;20190;-87
2023/09/15 05:17:10;;;;;;;10.47;7.90;;;8.70;91.40;;;;;;5117582;28;20617;-87
2023/09/15 05:19:36;;;;;;;9.03;7.43;;;8.70;91.50;;;;;;5116485;28;20205;-88
2023/09/15 05:22:02;;;;;;;8.60;7.80;;;8.80;91.60;;;;;;5116529;28;20174;-87
2023/09/15 05:24:27;;;;;;;10.23;7.67;;;8.80;91.60;;;;;;5116309;28;20232;-87
2023/09/15 05:26:53;;;;;;;8.87;7.87;;;8.80;91.60;;;;;;5116386;28;20178;-88
2023/09/15 05:29:19;;;;;;;11.77;7.83;;;8.80;91.60;;;;;;5116516;28;20238;-88
2023/09/15 05:31:44;;;;;;;8.50;7.60;;;8.80;91.70;;;;;;5117726;28;20200;-87
2023/09/15 05:34:10;;;;;;;9.83;7.90;;;8.90;91.70;;;;;;5117211;28;20241;-87
2023/09/15 05:36:35;;;;;;;10.30;7.70;;;8.80;91.70;;;;;;5117571;28;20636;-87
2023/09/15 05:39:01;;;;;;;8.53;7.73;;;8.80;91.60;;;;;;5117018;28;20193;-88
2023/09/15 05:41:26;;;;;;;10.20;8.07;;;8.80;91.70;;;;;;5117327;28;20197;-88
2023/09/15 05:43:52;;;;;;;16.03;7.60;;;8.80;91.80;;;;;;5117073;28;20684;-88
2023/09/15 05:46:18;;;;;;;9.83;7.30;;;8.80;91.80;;;;;;5115813;28;20223;-88
2023/09/15 05:48:43;;;;;;;7.93;7.17;;;8.90;91.90;;;;;;5115825;28;20624;-89
2023/09/15 05:51:09;;;;;;;10.20;8.03;;;8.90;92.00;;;;;;5115753;28;20704;-88
2023/09/15 05:53:34;;;;;;;10.80;8.33;;;9.00;92.00;;;;;;5115407;28;20200;-88
2023/09/15 05:56:01;;;;;;;11.17;7.33;;;9.00;92.10;;;;;;5115361;28;20288;-88
2023/09/15 05:58:27;;;;;;;11.80;8.40;;;9.10;92.20;;;;;;5115380;28;20246;-88
2023/09/15 06:00:55;;;;;;;8.90;8.00;;;9.20;92.20;;;;;;5117055;28;20170;-88
2023/09/15 06:03:22;;;;;;;11.20;8.80;;;9.20;92.40;;;;;;5115395;28;20680;-88
2023/09/15 06:05:48;;;;;;;12.73;8.50;;;9.30;92.50;;;;;;5115418;28;20553;-88
2023/09/15 06:08:13;;;;;;;9.93;8.33;;;9.40;92.60;;;;;;5115555;28;20170;-88
2023/09/15 06:10:40;;;;;;;10.10;8.20;;;9.50;92.60;;;;;;5115236;28;20241;-88
2023/09/15 06:13:06;;;;;;;10.20;9.17;;;9.70;92.70;;;;;;5116511;28;20170;-88
2023/09/15 06:15:33;;;;;;;8.83;8.03;;;9.70;92.80;;;;;;5114089;28;20265;-87
2023/09/15 06:18:00;;;;;;;9.83;8.83;;;9.80;92.80;;;;;;5116801;28;20565;-89
2023/09/15 06:20:26;;;;;;;9.47;8.47;;;9.90;92.90;;;;;;5115159;28;20258;-89
2023/09/15 06:22:52;;;;;;;14.27;10.90;;;10.00;92.90;;;;;;5116278;28;20644;-88
2023/09/15 06:25:17;;;;;;;12.90;11.73;;;10.10;93.00;;;;;;5115061;28;20289;-89
2023/09/15 06:27:43;;;;;;;12.47;11.37;;;10.30;93.00;;;;;;5116215;28;20261;-88
2023/09/15 06:30:09;;;;;;;13.27;12.07;;;10.30;93.10;;;;;;5116043;28;20181;-88
2023/09/15 06:32:34;;;;;;;14.33;12.60;;;10.40;93.10;;;;;;5114844;28;20581;-88
2023/09/15 06:35:00;;;;;;;13.40;12.20;;;10.50;93.20;;;;;;5114834;28;20281;-89
2023/09/15 06:37:25;;;;;;;13.93;12.50;;;10.60;93.20;;;;;;5115962;28;20170;-89
2023/09/15 06:39:51;;;;;;;15.23;12.97;;;10.70;93.20;;;;;;5114680;28;20202;-89
2023/09/15 06:42:16;;;;;;;13.80;12.40;;;10.80;93.20;;;;;;5114712;28;20181;-89
2023/09/15 06:44:42;;;;;;;14.57;13.27;;;10.80;93.20;;;;;;5115765;28;20665;-90
2023/09/15 06:47:07;;;;;;;13.93;12.00;;;10.90;93.20;;;;;;5114685;28;20264;-89
2023/09/15 06:49:33;;;;;;;15.00;12.57;;;11.00;93.30;;;;;;5115845;28;20252;-89
2023/09/15 06:51:58;;;;;;;14.30;13.00;;;11.10;93.30;;;;;;5114750;28;20174;-87
2023/09/15 06:54:24;;;;;;;12.80;10.20;;;11.20;93.30;;;;;;5114875;28;20293;-88
2023/09/15 06:56:50;;;;;;;11.33;9.40;;;11.30;93.20;;;;;;5114493;28;20190;-88
2023/09/15 06:59:16;;;;;;;12.27;9.17;;;11.40;93.20;;;;;;5115597;28;20628;-88
2023/09/15 07:01:42;;;;;;;14.47;13.27;;;11.50;93.20;;;;;;5114118;28;20177;-87
2023/09/15 07:04:08;;;;;;;17.60;13.07;;;11.60;93.20;;;;;;5114453;28;20186;-88
2023/09/15 07:06:34;;;;;;;11.80;9.97;;;11.70;93.10;;;;;;5114327;28;20260;-88
2023/09/15 07:08:59;;;;;;;14.23;10.00;;;11.80;93.10;;;;;;5114013;28;20698;-88
2023/09/15 07:11:25;;;;;;;15.60;10.67;;;11.80;93.20;;;;;;5114123;28;20549;-89
2023/09/15 07:13:50;;;;;;;13.90;10.50;;;11.90;93.10;;;;;;5115646;28;20688;-88
2023/09/15 07:16:16;;;;;;;11.40;10.27;;;12.00;93.20;;;;;;5114053;28;20189;-89
2023/09/15 07:18:41;;;;;;;12.60;10.83;;;12.20;93.20;;;;;;5115544;28;20193;-87
2023/09/15 07:21:07;;;;;;;14.23;9.97;;;12.30;93.20;;;;;;5114301;28;20170;-88
2023/09/15 07:23:33;;;;;;;12.10;10.00;;;12.40;93.20;;;;;;5115780;28;20182;-88
2023/09/15 07:25:59;;;;;;;11.40;10.40;;;12.60;93.20;;;;;;5114423;28;20174;-88
2023/09/15 07:28:24;;;;;;;11.73;9.83;;;12.70;93.10;;;;;;5114920;28;20314;-90
2023/09/15 07:30:50;;;;;;;13.30;10.00;;;12.80;92.90;;;;;;5113446;28;20217;-92
2023/09/15 07:33:15;;;;;;;11.87;9.43;;;12.90;92.80;;;;;;5113637;28;20203;-89
2023/09/15 07:35:41;;;;;;;10.83;9.70;;;13.00;92.70;;;;;;5114532;28;20182;-89
2023/09/15 07:38:07;;;;;;;14.00;10.33;;;13.10;92.60;;;;;;5113154;28;20677;-89
2023/09/15 07:40:33;;;;;;;17.53;11.00;;;13.20;92.50;;;;;;5114286;28;20169;-90
2023/09/15 07:42:59;;;;;;;15.27;10.40;;;13.30;92.30;;;;;;5113093;28;20211;-90
2023/09/15 07:45:26;;;;;;;12.47;9.97;;;13.40;92.20;;;;;;5113141;28;20551;-89
2023/09/15 07:47:51;;;;;;;10.90;9.47;;;13.50;91.70;;;;;;5113060;28;20721;-88
2023/09/15 07:50:17;;;;;;;9.50;8.70;;;13.60;91.20;;;;;;5113039;28;20166;-88
2023/09/15 07:52:46;;;;;;;12.03;9.97;;;13.80;90.70;;;;;;5114134;28;20165;-88
2023/09/15 07:55:12;;;;;;;11.50;10.20;;;13.90;90.40;;;;;;5112725;28;20549;-89
2023/09/15 07:57:39;;;;;;;11.00;10.00;;;14.10;90.40;;;;;;5114190;28;20170;-89
2023/09/15 08:00:07;;;;;;;11.20;10.10;;;14.20;90.00;;;;;;5112830;28;20201;-89
2023/09/15 08:02:32;;;;;;;11.43;10.43;;;14.30;89.70;;;;;;5112983;28;20197;-88
2023/09/15 08:04:58;;;;;;;10.40;9.60;;;14.40;89.50;;;;;;5112844;28;20681;-88
2023/09/15 08:07:23;;;;;;;11.50;9.33;;;14.60;89.30;;;;;;5112869;28;20181;-90
2023/09/15 08:09:49;;;;;;;11.43;10.43;;;14.50;88.50;;;;;;5112778;28;20261;-90
2023/09/15 08:12:18;;;;;;;11.03;10.10;;;14.80;88.00;;;;;;5113244;28;20174;-88
2023/09/15 08:14:44;;;;;;;11.87;9.47;;;14.90;87.60;;;;;;5114024;28;20190;-89
2023/09/15 08:17:10;;;;;;;11.23;9.90;;;15.00;86.80;;;;;;5113002;28;20177;-89
2023/09/15 08:19:35;;;;;;;11.13;10.07;;;15.10;86.20;;;;;;5112529;28;20196;-88
2023/09/15 08:22:01;;;;;;;10.73;9.63;;;15.20;85.90;;;;;;5114110;28;20178;-88
2023/09/15 08:24:26;;;;;;;14.02;9.43;;;15.30;85.90;;;;;;5112546;28;20579;-88
2023/09/15 08:26:52;;;;;;;11.23;9.45;;;15.50;85.40;;;;;;5112490;28;20181;-89
2023/09/15 08:29:17;;;;;;;10.82;9.93;;;15.50;84.70;;;;;;5112649;28;20181;-88
2023/09/15 08:31:43;;;;;;;10.82;9.82;;;15.60;84.30;;;;;;5112488;28;20166;-89
2023/09/15 08:34:08;;;;;;;10.48;9.57;;;15.70;84.00;;;;;;5112348;28;20296;-88
2023/09/15 08:36:34;;;;;;;11.43;9.45;;;15.80;83.40;;;;;;5112400;28;20644;-88
2023/09/15 08:39:00;;;;;;;10.80;9.90;;;15.80;82.00;;;;;;5116211;28;20242;-89
2023/09/15 08:41:39;;;;;;;11.60;10.00;;;15.90;82.20;;;;;;5116731;28;20182;-88
2023/09/15 08:44:07;;;;;;;10.38;9.38;;;16.10;82.20;;;;;;5117341;28;20285;-88
2023/09/15 08:46:34;;;;;;;10.95;9.57;;;16.20;81.80;;;;;;5116706;28;20544;-88
2023/09/15 08:49:01;;;;;;;12.93;9.85;;;16.30;80.90;;;;;;5117848;28;20200;-88
2023/09/15 08:51:29;;;;;;;11.20;10.07;;;16.40;80.20;;;;;;5116442;28;20174;-90
2023/09/15 08:53:56;;;;;;;10.68;9.57;;;16.50;80.90;;;;;;5116342;28;20293;-90
2023/09/15 08:56:23;;;;;;;11.10;10.02;;;16.60;79.80;;;;;;5116363;28;20690;-89
2023/09/15 08:58:48;;;;;;;11.55;9.80;;;16.70;79.30;;;;;;5116454;28;20201;-88
2023/09/15 09:01:15;;;;;;;11.18;10.18;;;16.90;78.90;;;;;;5117805;28;20249;-90
2023/09/15 09:03:42;;;;;;;10.68;9.60;;;17.00;78.50;;;;;;5116159;28;20201;-89
2023/09/15 09:06:09;;;;;;;11.57;10.48;;;17.10;78.50;;;;;;5116199;27;20174;-88
2023/09/15 09:08:37;;;;;;;11.02;10.13;;;17.20;77.90;;;;;;5117287;27;20207;-89
2023/09/15 09:11:03;;;;;;;10.68;9.65;;;17.30;78.00;;;;;;5116157;28;20185;-88
2023/09/15 09:13:28;;;;;;;11.27;10.45;;;17.40;77.50;;;;;;5117067;28;20186;-88
2023/09/15 09:15:54;;;;;;;11.20;10.20;;;17.60;76.90;;;;;;5117156;28;20170;-89
2023/09/15 09:18:20;;;;;;;12.25;10.75;;;17.70;76.40;;;;;;5115839;28;20676;-88
2023/09/15 09:20:49;;;;;;;13.15;11.85;;;17.80;76.70;;;;;;5117435;28;20170;-88
2023/09/15 09:23:16;;;;;;;12.50;11.50;;;17.80;74.90;;;;;;5115815;28;20190;-88
2023/09/15 09:25:42;;;;;;;13.30;12.20;;;18.00;74.70;;;;;;5117354;28;20162;-89
2023/09/15 09:28:08;;;;;;;17.70;16.40;;;18.10;75.00;;;;;;5115896;28;20188;-88
2023/09/15 09:30:33;;;;;;;19.73;18.23;;;18.20;75.50;;;;;;5117016;28;20227;-88
2023/09/15 09:32:59;;;;;;;21.98;20.40;;;18.20;74.30;;;;;;5115614;28;20177;-88
2023/09/15 09:35:25;;;;;;;19.23;17.90;;;18.30;73.60;;;;;;5117128;28;20219;-91
2023/09/15 09:37:55;;;;;;;12.90;11.90;;;18.50;73.10;;;;;;5116800;28;20174;-91
2023/09/15 09:40:22;;;;;;;14.15;12.70;;;18.70;73.20;;;;;;5115724;28;20207;-91
2023/09/15 09:42:49;;;;;;;18.67;17.05;;;18.70;73.30;;;;;;5115866;28;20170;-90
2023/09/15 09:45:15;;;;;;;21.08;19.30;;;18.80;72.10;;;;;;5115413;28;20194;-92
2023/09/15 09:47:42;;;;;;;21.70;20.10;;;18.80;70.70;;;;;;5115549;28;20208;-91
2023/09/15 09:50:10;;;;;;;16.25;14.95;;;18.80;70.10;;;;;;5115315;28;20178;-91
2023/09/15 09:52:36;;;;;;;15.57;14.55;;;19.00;70.60;;;;;;5115574;28;20181;-91
2023/09/15 09:55:07;;;;;;;23.00;21.30;;;19.10;70.20;;;;;;5115291;28;20237;-91
2023/09/15 09:57:33;;;;;;;25.60;23.83;;;19.10;70.50;;;;;;5115530;28;20596;-91
2023/09/15 09:59:59;;;;;;;18.00;16.60;;;19.20;70.60;;;;;;5116573;28;20277;-92
2023/09/15 10:02:26;;;;;;;17.35;16.15;;;19.20;69.90;;;;;;5115515;28;20170;-91
2023/09/15 10:04:52;;;;;;;17.85;16.38;;;19.30;70.30;;;;;;5115182;28;20197;-91
2023/09/15 10:07:17;;;;;;;18.70;17.20;;;19.40;69.70;;;;;;5115266;28;20178;-91
2023/09/15 10:09:45;;;;;;;19.33;17.55;;;19.40;66.60;;;;;;5116040;28;20178;-92
2023/09/15 10:12:13;;;;;;;18.40;16.90;;;19.50;68.20;;;;;;5115187;28;20205;-91
2023/09/15 10:14:39;;;;;;;19.02;17.48;;;19.60;67.80;;;;;;5114932;28;20729;-92
2023/09/15 10:17:05;;;;;;;18.85;17.42;;;19.60;65.60;;;;;;5115159;28;20174;-91
2023/09/15 10:19:31;;;;;;;19.13;17.55;;;19.60;66.10;;;;;;5114870;28;20262;-92
2023/09/15 10:21:57;;;;;;;19.85;18.27;;;19.70;66.60;;;;;;5115006;28;20166;-91
2023/09/15 10:24:23;;;;;;;20.65;18.70;;;19.90;66.50;;;;;;5116044;28;20227;-91
2023/09/15 10:26:48;;;;;;;19.45;17.90;;;20.10;66.60;;;;;;5116104;28;20170;-92
2023/09/15 10:29:15;;;;;;;19.30;17.77;;;20.30;66.00;;;;;;5114893;28;20213;-92
2023/09/15 10:31:42;;;;;;;20.33;18.88;;;20.30;65.00;;;;;;5115972;28;20664;-92
2023/09/15 10:34:07;;;;;;;20.88;19.15;;;20.20;62.90;;;;;;5114994;28;20202;-91
2023/09/15 10:36:33;;;;;;;20.25;18.75;;;20.30;63.50;;;;;;5114839;28;20173;-91
2023/09/15 10:39:13;;;;;;;20.27;18.67;;;20.40;64.00;;;;;;5115741;28;20194;-91
2023/09/15 10:41:39;;;;;;;19.92;18.52;;;20.40;64.00;;;;;;5115917;28;20660;-91
2023/09/15 10:44:04;;;;;;;20.13;18.73;;;20.60;64.80;;;;;;5114560;28;20271;-91
2023/09/15 10:46:37;;;;;;;19.92;18.00;;;20.70;64.00;;;;;;5114535;28;20170;-92
2023/09/15 10:49:20;;;;;;;19.17;17.60;;;20.70;64.70;;;;;;5116115;28;20151;-92
2023/09/15 10:51:57;;;;;;;20.80;18.80;;;20.90;64.80;;;;;;5115615;28;20161;-91
2023/09/15 10:54:30;;;;;;;19.35;17.73;;;20.70;61.50;;;;;;5115210;28;20607;-91
2023/09/15 10:56:57;;;;;;;19.30;17.65;;;20.70;63.60;;;;;;5114919;28;20193;-91
2023/09/15 10:59:24;;;;;;;19.50;18.00;;;20.70;64.60;;;;;;5114144;28;20268;-91
2023/09/15 11:01:50;;;;;;;20.95;18.92;;;20.70;63.50;;;;;;5114921;28;20178;-91
2023/09/15 11:04:22;;;;;;;19.00;17.55;;;20.70;62.80;;;;;;5115484;27;20185;-91
2023/09/15 11:06:50;;;;;;;19.38;17.63;;;21.00;64.40;;;;;;5114303;28;20169;-91
2023/09/15 11:09:16;;;;;;;20.60;19.00;;;21.10;63.60;;;;;;5114976;28;20178;-92
2023/09/15 11:11:50;;;;;;;20.00;18.35;;;21.00;63.00;;;;;;5114548;28;20176;-91
2023/09/15 11:14:19;;;;;;;20.30;18.70;;;21.10;63.40;;;;;;5115417;28;20186;-91
2023/09/15 11:16:54;;;;;;;21.10;19.38;;;21.20;62.70;;;;;;5114098;28;20176;-91
2023/09/15 11:19:22;;;;;;;21.25;19.55;;;21.20;62.90;;;;;;5113917;28;20237;-91
2023/09/15 11:21:48;;;;;;;20.30;18.45;;;21.20;62.40;;;;;;5113796;28;20177;-92
2023/09/15 11:24:14;;;;;;;21.67;19.77;;;21.20;62.20;;;;;;5113774;28;20568;-91
2023/09/15 11:26:47;;;;;;;20.15;18.50;;;21.30;61.40;;;;;;5114148;28;20170;-89
2023/09/15 11:29:14;;;;;;;20.63;19.00;;;21.20;62.40;;;;;;5114491;28;20176;-92
2023/09/15 11:31:40;;;;;;;20.58;18.98;;;21.20;62.00;;;;;;5115002;28;20170;-91
2023/09/15 11:34:07;;;;;;;20.63;19.13;;;21.20;62.80;;;;;;5113538;28;20194;-91
2023/09/15 11:36:35;;;;;;;20.35;18.58;;;21.30;62.50;;;;;;5115225;28;20201;-91
2023/09/15 11:39:11;;;;;;;20.33;18.65;;;21.40;62.20;;;;;;5114655;28;20190;-91
2023/09/15 11:41:53;;;;;;;19.70;18.10;;;21.30;60.90;;;;;;5113497;28;20637;-90
2023/09/15 11:44:26;;;;;;;20.23;18.63;;;21.70;61.70;;;;;;5114558;28;20190;-91
2023/09/15 11:46:53;;;;;;;20.27;18.88;;;21.80;61.60;;;;;;5113390;28;20162;-92
2023/09/15 11:49:19;;;;;;;21.88;20.17;;;21.90;61.20;;;;;;5114806;28;20174;-92
2023/09/15 11:51:46;;;;;;;21.33;19.73;;;21.80;61.90;;;;;;5113318;28;20169;-91
2023/09/15 11:54:12;;;;;;;19.48;17.90;;;21.80;62.70;;;;;;5113297;28;20194;-91
2023/09/15 11:56:38;;;;;;;19.90;18.50;;;21.90;60.00;;;;;;5114490;28;20727;-90
2023/09/15 11:59:05;;;;;;;21.05;19.15;;;21.80;60.70;;;;;;5113059;28;20225;-91
2023/09/15 12:01:32;;;;;;;19.95;18.52;;;22.10;61.10;;;;;;5114291;28;20206;-90
2023/09/15 12:03:58;;;;;;;21.23;19.55;;;22.10;58.80;;;;;;5114095;28;20567;-90
2023/09/15 12:06:25;;;;;;;20.73;18.92;;;22.30;58.80;;;;;;5114125;28;20162;-90
2023/09/15 12:08:51;;;;;;;19.50;18.00;;;22.40;60.80;;;;;;5112999;28;20174;-91
2023/09/15 12:11:18;;;;;;;20.38;18.92;;;22.60;59.90;;;;;;5112993;28;20177;-91
2023/09/15 12:13:48;;;;;;;20.15;18.65;;;22.60;58.30;;;;;;5113685;28;20193;-91
2023/09/15 12:16:27;;;;;;;20.10;18.55;;;22.30;59.30;;;;;;5112892;28;20177;-91
2023/09/15 12:18:53;;;;;;;19.75;18.27;;;22.30;57.90;;;;;;5113961;28;20182;-90
2023/09/15 12:21:24;;;;;;;19.38;17.98;;;22.40;59.70;;;;;;5114016;28;20162;-91
2023/09/15 12:23:51;;;;;;;18.85;17.40;;;22.70;57.50;;;;;;5113354;28;20201;-91
2023/09/15 12:26:17;;;;;;;18.67;17.42;;;22.70;56.80;;;;;;5114294;28;20249;-91
2023/09/15 12:28:43;;;;;;;19.25;17.95;;;22.80;56.60;;;;;;5112932;28;20209;-91
2023/09/15 12:31:16;;;;;;;30.20;28.00;;;22.90;57.80;;;;;;5112727;28;20173;-91
2023/09/15 12:33:43;;;;;;;30.23;28.08;;;22.80;56.00;;;;;;5112860;28;20640;-90
2023/09/15 12:36:12;;;;;;;29.35;27.30;;;22.70;58.30;;;;;;5112620;28;20185;-90